createdAt,value
2019-02-16T15:31:25.752Z,0.00
2019-02-16T15:32:36.742Z,258.75
2019-02-16T15:33:37.003Z,253.12
2019-02-16T15:34:36.920Z,247.50
2019-02-16T15:35:38.185Z,241.88
2019-02-16T15:36:38.421Z,236.25
2019-02-16T15:37:38.626Z,225.00
2019-02-16T15:38:38.848Z,225.00
2019-02-16T15:39:39.136Z,225.00
2019-02-16T15:40:39.428Z,208.12
2019-02-16T15:41:39.448Z,213.75
2019-02-16T15:42:39.670Z,219.38
2019-02-16T15:43:39.772Z,213.75
2019-02-16T15:44:40.072Z,202.50
2019-02-16T15:45:40.198Z,196.88
2019-02-16T15:46:41.307Z,202.50
2019-02-16T15:47:40.578Z,213.75
2019-02-16T15:48:41.282Z,208.12
2019-02-16T15:49:41.191Z,191.25
2019-02-16T15:50:42.211Z,185.62
2019-02-16T15:51:42.208Z,180.00
2019-02-16T15:52:41.437Z,180.00
2019-02-16T15:53:41.558Z,180.00
2019-02-16T15:54:41.688Z,174.38
2019-02-16T15:55:41.782Z,174.38
2019-02-16T15:56:42.061Z,174.38
2019-02-16T15:57:42.203Z,168.75
2019-02-16T15:58:42.372Z,146.25
2019-02-16T15:59:42.600Z,129.38
2019-02-16T16:00:42.831Z,118.12
2019-02-16T16:01:43.036Z,106.88
2019-02-16T16:02:43.165Z,101.25
2019-02-16T16:03:43.465Z,101.25
2019-02-16T16:04:44.559Z,95.62
2019-02-16T16:05:43.959Z,95.62
2019-02-16T16:06:44.135Z,90.00
2019-02-16T16:07:44.232Z,90.00
2019-02-16T16:08:44.294Z,84.38
2019-02-16T16:09:44.421Z,84.38
2019-02-16T16:10:44.513Z,84.38
2019-02-16T16:11:44.729Z,78.75
2019-02-16T16:12:46.047Z,78.75
2019-02-16T16:13:45.187Z,73.12
2019-02-16T16:14:46.404Z,73.12
2019-02-16T16:15:45.542Z,67.50
2019-02-16T16:16:46.051Z,67.50
2019-02-16T16:17:46.118Z,67.50
2019-02-16T16:18:46.257Z,61.88
2019-02-16T16:19:46.509Z,61.88
2019-02-16T16:20:46.568Z,56.25
2019-02-16T16:21:46.901Z,56.25
2019-02-16T16:22:47.523Z,50.62
2019-02-16T16:23:46.984Z,45.00
2019-02-16T16:24:47.346Z,45.00
2019-02-16T16:25:48.417Z,45.00
2019-02-16T16:26:49.065Z,39.38
2019-02-16T16:27:48.891Z,39.38
2019-02-16T16:28:48.080Z,33.75
2019-02-16T16:29:48.201Z,33.75
2019-02-16T16:30:48.349Z,28.12
2019-02-16T16:31:48.487Z,28.12
2019-02-16T16:32:48.748Z,28.12
2019-02-16T16:33:48.856Z,22.50
2019-02-16T16:34:49.149Z,22.50
2019-02-16T16:35:49.381Z,16.88
2019-02-16T16:36:49.885Z,16.88
2019-02-16T16:37:49.902Z,16.88
2019-02-16T16:38:50.333Z,11.25
2019-02-16T16:39:50.155Z,11.25
2019-02-16T16:40:51.386Z,11.25
2019-02-16T16:41:50.608Z,11.25
2019-02-16T16:42:50.860Z,5.62
2019-02-16T16:43:50.823Z,5.62
2019-02-16T16:44:51.060Z,5.62
2019-02-16T16:45:51.182Z,5.62
2019-02-16T16:46:51.397Z,5.62
2019-02-16T16:47:51.698Z,5.62
2019-02-16T16:48:51.945Z,0.00
2019-02-16T16:49:52.152Z,0.00
2019-02-16T16:50:52.196Z,0.00
2019-02-16T16:51:52.384Z,0.00
2019-02-16T16:52:52.582Z,0.00
2019-02-16T16:53:52.769Z,0.00
2019-02-16T16:54:53.034Z,0.00
2019-02-16T16:55:53.132Z,0.00
2019-02-16T16:56:53.353Z,0.00
2019-02-16T16:57:53.442Z,0.00
2019-02-16T16:58:53.652Z,0.00
2019-02-16T16:59:54.385Z,0.00
2019-02-16T17:00:54.080Z,0.00
2019-02-16T17:01:54.287Z,0.00
2019-02-16T17:02:54.490Z,0.00
2019-02-16T17:16:59.525Z,0.00
2019-02-16T17:17:59.723Z,0.00
2019-02-16T17:18:59.461Z,0.00
2019-02-16T17:19:59.353Z,0.00
2019-02-16T17:21:00.414Z,0.00
2019-02-16T17:21:59.648Z,0.00
2019-02-16T17:22:59.783Z,0.00
2019-02-16T17:23:59.954Z,0.00
2019-02-16T17:25:00.140Z,0.00
2019-02-16T17:26:00.258Z,0.00
2019-02-16T17:27:00.458Z,0.00
2019-02-16T17:28:00.637Z,0.00
2019-02-16T17:29:00.793Z,0.00
2019-02-16T17:30:00.961Z,0.00
2019-02-16T17:31:01.126Z,0.00
2019-02-16T17:32:01.383Z,0.00
2019-02-16T17:33:01.450Z,0.00
2019-02-16T17:34:01.649Z,0.00
2019-02-16T17:35:01.667Z,0.00
2019-02-16T17:36:01.920Z,0.00
2019-02-16T17:37:02.009Z,0.00
2019-02-16T17:38:02.320Z,0.00
2019-02-16T17:39:02.374Z,0.00
2019-02-16T17:40:03.312Z,0.00
2019-02-16T17:41:02.719Z,0.00
2019-02-16T17:42:03.814Z,0.00
2019-02-16T17:43:03.107Z,0.00
2019-02-16T17:44:03.305Z,0.00
2019-02-16T17:45:03.399Z,0.00
2019-02-16T17:46:03.559Z,0.00
2019-02-16T17:47:03.677Z,0.00
2019-02-16T17:48:03.855Z,0.00
2019-02-16T17:49:03.995Z,0.00
2019-02-16T17:50:04.114Z,0.00
2019-02-16T17:51:04.303Z,0.00
2019-02-16T17:52:04.419Z,0.00
2019-02-16T17:53:04.785Z,0.00
2019-02-16T17:54:08.404Z,0.00
2019-02-16T17:55:06.091Z,0.00
2019-02-16T17:56:05.262Z,0.00
2019-02-16T17:57:05.486Z,0.00
2019-02-16T17:58:05.533Z,0.00
2019-02-16T17:59:05.724Z,0.00
2019-02-16T18:30:38.219Z,0.00
2019-02-16T18:31:39.143Z,0.00
2019-02-16T18:32:39.572Z,0.00
2019-02-16T18:33:40.423Z,0.00
2019-02-16T18:34:40.555Z,0.00
2019-02-16T18:35:39.833Z,0.00
2019-02-16T18:36:40.771Z,0.00
2019-02-16T18:37:40.892Z,0.00
2019-02-16T18:38:40.952Z,0.00
2019-02-16T18:39:40.517Z,0.00
2019-02-16T18:40:40.672Z,0.00
2019-02-16T18:41:40.805Z,0.00
2019-02-16T18:42:40.980Z,0.00
2019-02-16T18:43:41.121Z,0.00
2019-02-16T18:44:41.254Z,0.00
2019-02-16T18:45:41.493Z,0.00
2019-02-16T18:46:41.603Z,0.00
2019-02-16T18:47:41.806Z,0.00
2019-02-16T18:48:41.975Z,0.00
2019-02-16T18:49:42.174Z,0.00
2019-02-16T18:50:42.343Z,0.00
2019-02-16T18:51:42.525Z,0.00
2019-02-16T18:52:42.626Z,0.00
2019-02-16T18:53:42.873Z,0.00
2019-02-16T18:54:43.044Z,0.00
2019-02-16T18:55:43.270Z,0.00
2019-02-16T18:56:43.444Z,0.00
2019-02-16T18:57:43.725Z,0.00
2019-02-16T18:58:43.812Z,0.00
2019-02-16T18:59:43.983Z,0.00
2019-02-16T20:00:39.157Z,0.00
2019-02-16T20:01:40.610Z,0.00
2019-02-16T20:02:41.320Z,0.00
2019-02-16T20:03:40.425Z,0.00
2019-02-16T20:04:40.562Z,0.00
2019-02-16T20:05:40.708Z,0.00
2019-02-16T20:06:40.812Z,0.00
2019-02-16T20:07:41.091Z,0.00
2019-02-16T20:08:41.294Z,0.00
2019-02-16T20:09:41.387Z,0.00
2019-02-16T20:10:41.714Z,0.00
2019-02-16T20:11:41.881Z,0.00
2019-02-16T20:12:42.018Z,0.00
2019-02-16T20:13:43.141Z,0.00
2019-02-16T20:14:42.419Z,0.00
2019-02-16T20:15:42.652Z,0.00
2019-02-16T20:16:42.729Z,0.00
2019-02-16T20:17:42.995Z,0.00
2019-02-16T20:18:43.120Z,0.00
2019-02-16T20:19:43.311Z,0.00
2019-02-16T20:20:43.482Z,0.00
2019-02-16T20:21:43.695Z,0.00
2019-02-16T20:22:43.873Z,0.00
2019-02-16T20:23:44.017Z,0.00
2019-02-16T20:24:44.152Z,0.00
2019-02-16T20:25:44.356Z,0.00
2019-02-16T20:26:44.975Z,0.00
2019-02-16T20:27:44.714Z,0.00
2019-02-16T20:28:44.905Z,0.00
2019-02-16T20:29:45.055Z,0.00
2019-02-16T20:30:45.222Z,0.00
2019-02-16T20:31:45.346Z,0.00
2019-02-16T20:32:45.579Z,0.00
2019-02-16T20:33:45.721Z,0.00
2019-02-16T20:34:45.874Z,0.00
2019-02-16T20:35:46.110Z,0.00
2019-02-16T20:36:46.314Z,0.00
2019-02-16T20:37:46.454Z,0.00
2019-02-16T20:38:46.806Z,0.00
2019-02-16T20:39:46.928Z,0.00
2019-02-16T20:40:47.148Z,0.00
2019-02-16T20:41:47.357Z,0.00
2019-02-16T20:42:47.610Z,0.00
2019-02-16T20:43:47.750Z,0.00
2019-02-16T20:44:47.975Z,0.00
2019-02-16T20:45:48.161Z,0.00
2019-02-16T20:46:48.477Z,0.00
2019-02-16T20:47:48.693Z,0.00
2019-02-16T20:48:48.625Z,0.00
2019-02-16T20:49:48.840Z,0.00
2019-02-16T20:50:49.213Z,0.00
2019-02-16T20:51:49.327Z,0.00
2019-02-16T20:52:49.519Z,0.00
2019-02-16T20:53:50.476Z,0.00
2019-02-16T20:54:49.803Z,0.00
2019-02-16T20:55:50.215Z,0.00
2019-02-16T20:56:50.239Z,0.00
2019-02-16T20:57:50.274Z,0.00
2019-02-16T20:58:50.466Z,0.00
2019-02-16T20:59:50.692Z,0.00
2019-02-16T21:27:00.599Z,0.00
2019-02-16T21:27:46.226Z,0.00
2019-02-16T21:28:13.540Z,0.00
2019-02-16T21:29:14.715Z,0.00
2019-02-16T21:31:52.295Z,0.00
2019-02-16T21:35:52.054Z,0.00
2019-02-16T21:40:56.041Z,0.00
2019-02-16T21:41:21.435Z,0.00
2019-02-16T21:48:12.119Z,0.00
2019-02-16T21:49:04.068Z,0.00
2019-02-16T21:50:04.224Z,0.00
2019-02-16T21:51:04.284Z,0.00
2019-02-16T21:52:34.708Z,0.00
2019-02-16T21:53:28.965Z,0.00
2019-02-16T21:56:51.243Z,0.00
2019-02-16T21:58:10.253Z,0.00
